sensor_id;sensor_type;location;lat;lon;timestamp;temperature;humidity
24338;DHT22;12457;50.832;4.346;2024-03-02T00:00:19;6.90;99.90
24338;DHT22;12457;50.832;4.346;2024-03-02T00:02:47;7.00;99.90
24338;DHT22;12457;50.832;4.346;2024-03-02T00:05:19;6.90;99.90
24338;DHT22;12457;50.832;4.346;2024-03-02T00:08:04;6.90;99.90
24338;DHT22;12457;50.832;4.346;2024-03-02T00:10:40;6.90;99.90
24338;DHT22;12457;50.832;4.346;2024-03-02T00:13:09;6.90;99.90
24338;DHT22;12457;50.832;4.346;2024-03-02T00:18:03;6.90;99.90
24338;DHT22;12457;50.832;4.346;2024-03-02T00:20:30;6.90;99.90
24338;DHT22;12457;50.832;4.346;2024-03-02T00:23:15;6.90;99.90
24338;DHT22;12457;50.832;4.346;2024-03-02T00:25:45;6.90;99.90
24338;DHT22;12457;50.832;4.346;2024-03-02T00:28:19;6.90;99.90
24338;DHT22;12457;50.832;4.346;2024-03-02T00:31:11;6.90;99.90
24338;DHT22;12457;50.832;4.346;2024-03-02T00:33:44;6.80;99.90
24338;DHT22;12457;50.832;4.346;2024-03-02T00:36:11;6.90;99.90
24338;DHT22;12457;50.832;4.346;2024-03-02T00:38:48;6.90;99.90
24338;DHT22;12457;50.832;4.346;2024-03-02T00:41:29;6.90;99.90
24338;DHT22;12457;50.832;4.346;2024-03-02T00:44:07;7.00;99.90
24338;DHT22;12457;50.832;4.346;2024-03-02T00:46:36;6.90;99.90
24338;DHT22;12457;50.832;4.346;2024-03-02T00:49:04;6.90;99.90
24338;DHT22;12457;50.832;4.346;2024-03-02T00:51:31;6.90;99.90
24338;DHT22;12457;50.832;4.346;2024-03-02T00:54:15;6.80;99.90
24338;DHT22;12457;50.832;4.346;2024-03-02T00:56:44;6.80;99.90
24338;DHT22;12457;50.832;4.346;2024-03-02T00:59:10;6.90;99.90
24338;DHT22;12457;50.832;4.346;2024-03-02T01:01:36;6.80;99.90
24338;DHT22;12457;50.832;4.346;2024-03-02T01:04:03;6.90;99.90
24338;DHT22;12457;50.832;4.346;2024-03-02T01:06:29;6.90;99.90
24338;DHT22;12457;50.832;4.346;2024-03-02T01:08:54;6.90;99.90
24338;DHT22;12457;50.832;4.346;2024-03-02T01:11:20;6.90;99.90
24338;DHT22;12457;50.832;4.346;2024-03-02T01:13:49;7.00;99.90
24338;DHT22;12457;50.832;4.346;2024-03-02T01:16:15;7.00;99.90
24338;DHT22;12457;50.832;4.346;2024-03-02T01:18:43;6.90;99.90
24338;DHT22;12457;50.832;4.346;2024-03-02T01:21:09;6.90;99.90
24338;DHT22;12457;50.832;4.346;2024-03-02T01:23:35;6.90;99.90
24338;DHT22;12457;50.832;4.346;2024-03-02T01:26:01;6.90;99.90
24338;DHT22;12457;50.832;4.346;2024-03-02T01:28:26;6.90;99.90
24338;DHT22;12457;50.832;4.346;2024-03-02T01:30:52;6.80;99.90
24338;DHT22;12457;50.832;4.346;2024-03-02T01:33:18;6.80;99.90
24338;DHT22;12457;50.832;4.346;2024-03-02T01:35:44;6.80;99.90
24338;DHT22;12457;50.832;4.346;2024-03-02T01:38:10;6.80;99.90
24338;DHT22;12457;50.832;4.346;2024-03-02T01:40:37;6.80;99.90
24338;DHT22;12457;50.832;4.346;2024-03-02T01:43:37;6.80;99.90
24338;DHT22;12457;50.832;4.346;2024-03-02T01:46:02;6.80;99.90
24338;DHT22;12457;50.832;4.346;2024-03-02T01:48:28;6.90;99.90
24338;DHT22;12457;50.832;4.346;2024-03-02T01:50:54;7.00;99.90
24338;DHT22;12457;50.832;4.346;2024-03-02T01:53:20;7.00;99.90
24338;DHT22;12457;50.832;4.346;2024-03-02T01:55:46;7.10;99.90
24338;DHT22;12457;50.832;4.346;2024-03-02T01:58:12;7.00;99.90
24338;DHT22;12457;50.832;4.346;2024-03-02T02:00:37;7.00;99.90
24338;DHT22;12457;50.832;4.346;2024-03-02T02:03:03;7.00;99.90
24338;DHT22;12457;50.832;4.346;2024-03-02T02:05:29;7.00;99.90
24338;DHT22;12457;50.832;4.346;2024-03-02T02:07:55;7.10;99.90
24338;DHT22;12457;50.832;4.346;2024-03-02T02:10:21;7.10;99.90
24338;DHT22;12457;50.832;4.346;2024-03-02T02:12:52;7.10;99.90
24338;DHT22;12457;50.832;4.346;2024-03-02T02:15:30;7.00;99.90
24338;DHT22;12457;50.832;4.346;2024-03-02T02:17:57;7.10;99.90
24338;DHT22;12457;50.832;4.346;2024-03-02T02:20:23;7.20;99.90
24338;DHT22;12457;50.832;4.346;2024-03-02T02:23:03;7.10;99.90
24338;DHT22;12457;50.832;4.346;2024-03-02T02:25:29;7.10;99.90
24338;DHT22;12457;50.832;4.346;2024-03-02T02:28:00;7.10;99.90
24338;DHT22;12457;50.832;4.346;2024-03-02T02:30:31;7.10;99.90
24338;DHT22;12457;50.832;4.346;2024-03-02T02:32:58;7.10;99.90
24338;DHT22;12457;50.832;4.346;2024-03-02T02:35:24;7.10;99.90
24338;DHT22;12457;50.832;4.346;2024-03-02T02:37:51;7.10;99.90
24338;DHT22;12457;50.832;4.346;2024-03-02T02:40:17;7.10;99.90
24338;DHT22;12457;50.832;4.346;2024-03-02T02:42:44;7.20;99.90
24338;DHT22;12457;50.832;4.346;2024-03-02T02:45:10;7.10;99.90
24338;DHT22;12457;50.832;4.346;2024-03-02T02:47:38;7.10;99.90
24338;DHT22;12457;50.832;4.346;2024-03-02T02:50:04;7.00;99.90
24338;DHT22;12457;50.832;4.346;2024-03-02T02:52:35;6.90;99.90
24338;DHT22;12457;50.832;4.346;2024-03-02T02:55:03;6.80;99.90
24338;DHT22;12457;50.832;4.346;2024-03-02T02:57:29;6.70;99.90
24338;DHT22;12457;50.832;4.346;2024-03-02T02:59:57;6.70;99.90
24338;DHT22;12457;50.832;4.346;2024-03-02T03:02:22;6.70;99.90
24338;DHT22;12457;50.832;4.346;2024-03-02T03:04:48;6.70;99.90
24338;DHT22;12457;50.832;4.346;2024-03-02T03:07:14;6.60;99.90
24338;DHT22;12457;50.832;4.346;2024-03-02T03:09:39;6.50;99.90
24338;DHT22;12457;50.832;4.346;2024-03-02T03:12:08;6.50;99.90
24338;DHT22;12457;50.832;4.346;2024-03-02T03:14:34;6.50;99.90
24338;DHT22;12457;50.832;4.346;2024-03-02T03:16:59;6.50;99.90
24338;DHT22;12457;50.832;4.346;2024-03-02T03:19:25;6.50;99.90
24338;DHT22;12457;50.832;4.346;2024-03-02T03:21:50;6.40;99.90
24338;DHT22;12457;50.832;4.346;2024-03-02T03:24:16;6.40;99.90
24338;DHT22;12457;50.832;4.346;2024-03-02T03:26:42;6.40;99.90
24338;DHT22;12457;50.832;4.346;2024-03-02T03:29:07;6.30;99.90
24338;DHT22;12457;50.832;4.346;2024-03-02T03:31:33;6.30;99.90
24338;DHT22;12457;50.832;4.346;2024-03-02T03:33:58;6.30;99.90
24338;DHT22;12457;50.832;4.346;2024-03-02T03:36:24;6.30;99.90
24338;DHT22;12457;50.832;4.346;2024-03-02T03:38:50;6.40;99.90
24338;DHT22;12457;50.832;4.346;2024-03-02T03:41:15;6.40;99.90
24338;DHT22;12457;50.832;4.346;2024-03-02T03:43:41;6.40;99.90
24338;DHT22;12457;50.832;4.346;2024-03-02T03:46:07;6.50;99.90
24338;DHT22;12457;50.832;4.346;2024-03-02T03:48:32;6.50;99.90
24338;DHT22;12457;50.832;4.346;2024-03-02T03:50:58;6.60;99.90
24338;DHT22;12457;50.832;4.346;2024-03-02T03:53:25;6.60;99.90
24338;DHT22;12457;50.832;4.346;2024-03-02T03:55:50;6.60;99.90
24338;DHT22;12457;50.832;4.346;2024-03-02T03:58:16;6.60;99.90
24338;DHT22;12457;50.832;4.346;2024-03-02T04:00:44;6.70;99.90
24338;DHT22;12457;50.832;4.346;2024-03-02T04:03:09;6.60;99.90
24338;DHT22;12457;50.832;4.346;2024-03-02T04:05:35;6.60;99.90
24338;DHT22;12457;50.832;4.346;2024-03-02T04:08:01;6.60;99.90
24338;DHT22;12457;50.832;4.346;2024-03-02T04:10:26;6.70;99.90
24338;DHT22;12457;50.832;4.346;2024-03-02T04:12:52;6.70;99.90
24338;DHT22;12457;50.832;4.346;2024-03-02T04:15:18;6.60;99.90
24338;DHT22;12457;50.832;4.346;2024-03-02T04:17:44;6.60;99.90
24338;DHT22;12457;50.832;4.346;2024-03-02T04:20:10;6.60;99.90
24338;DHT22;12457;50.832;4.346;2024-03-02T04:22:38;6.60;99.90
24338;DHT22;12457;50.832;4.346;2024-03-02T04:25:04;6.60;99.90
24338;DHT22;12457;50.832;4.346;2024-03-02T04:27:32;6.60;99.90
24338;DHT22;12457;50.832;4.346;2024-03-02T04:29:59;6.60;99.90
24338;DHT22;12457;50.832;4.346;2024-03-02T04:32:26;6.70;99.90
24338;DHT22;12457;50.832;4.346;2024-03-02T04:34:52;6.60;99.90
24338;DHT22;12457;50.832;4.346;2024-03-02T04:37:18;6.50;99.90
24338;DHT22;12457;50.832;4.346;2024-03-02T04:39:43;6.50;99.90
24338;DHT22;12457;50.832;4.346;2024-03-02T04:42:09;6.50;99.90
24338;DHT22;12457;50.832;4.346;2024-03-02T04:44:35;6.50;99.90
24338;DHT22;12457;50.832;4.346;2024-03-02T04:47:01;6.50;99.90
24338;DHT22;12457;50.832;4.346;2024-03-02T04:49:26;6.40;99.90
24338;DHT22;12457;50.832;4.346;2024-03-02T04:51:52;6.40;99.90
24338;DHT22;12457;50.832;4.346;2024-03-02T04:54:18;6.40;99.90
24338;DHT22;12457;50.832;4.346;2024-03-02T04:56:43;6.30;99.90
24338;DHT22;12457;50.832;4.346;2024-03-02T04:59:25;6.30;99.90
24338;DHT22;12457;50.832;4.346;2024-03-02T05:01:50;6.30;99.90
24338;DHT22;12457;50.832;4.346;2024-03-02T05:04:16;6.20;99.90
24338;DHT22;12457;50.832;4.346;2024-03-02T05:06:42;6.10;99.90
24338;DHT22;12457;50.832;4.346;2024-03-02T05:09:08;6.10;99.90
24338;DHT22;12457;50.832;4.346;2024-03-02T05:11:35;6.00;99.90
24338;DHT22;12457;50.832;4.346;2024-03-02T05:14:06;6.00;99.90
24338;DHT22;12457;50.832;4.346;2024-03-02T05:16:35;6.00;99.90
24338;DHT22;12457;50.832;4.346;2024-03-02T05:19:02;6.00;99.90
24338;DHT22;12457;50.832;4.346;2024-03-02T05:21:27;5.90;99.90
24338;DHT22;12457;50.832;4.346;2024-03-02T05:23:53;5.90;99.90
24338;DHT22;12457;50.832;4.346;2024-03-02T05:26:19;5.80;99.90
24338;DHT22;12457;50.832;4.346;2024-03-02T05:28:44;5.70;99.90
24338;DHT22;12457;50.832;4.346;2024-03-02T05:31:10;5.80;99.90
24338;DHT22;12457;50.832;4.346;2024-03-02T05:33:40;5.70;99.90
24338;DHT22;12457;50.832;4.346;2024-03-02T05:36:06;5.70;99.90
24338;DHT22;12457;50.832;4.346;2024-03-02T05:38:34;5.60;99.90
24338;DHT22;12457;50.832;4.346;2024-03-02T05:41:00;5.60;99.90
24338;DHT22;12457;50.832;4.346;2024-03-02T05:43:30;5.50;99.90
24338;DHT22;12457;50.832;4.346;2024-03-02T05:45:56;5.50;99.90
24338;DHT22;12457;50.832;4.346;2024-03-02T05:48:22;5.50;99.90
24338;DHT22;12457;50.832;4.346;2024-03-02T05:50:47;5.50;99.90
24338;DHT22;12457;50.832;4.346;2024-03-02T05:53:13;5.50;99.90
24338;DHT22;12457;50.832;4.346;2024-03-02T05:55:39;5.50;99.90
24338;DHT22;12457;50.832;4.346;2024-03-02T05:58:23;5.40;99.90
24338;DHT22;12457;50.832;4.346;2024-03-02T06:01:07;5.40;99.90
24338;DHT22;12457;50.832;4.346;2024-03-02T06:03:33;5.40;99.90
24338;DHT22;12457;50.832;4.346;2024-03-02T06:05:58;5.30;99.90
24338;DHT22;12457;50.832;4.346;2024-03-02T06:08:25;5.30;99.90
24338;DHT22;12457;50.832;4.346;2024-03-02T06:10:50;5.40;99.90
24338;DHT22;12457;50.832;4.346;2024-03-02T06:13:16;5.40;99.90
24338;DHT22;12457;50.832;4.346;2024-03-02T06:15:42;5.40;99.90
24338;DHT22;12457;50.832;4.346;2024-03-02T06:18:08;5.40;99.90
24338;DHT22;12457;50.832;4.346;2024-03-02T06:20:34;5.30;99.90
24338;DHT22;12457;50.832;4.346;2024-03-02T06:22:59;5.30;99.90
24338;DHT22;12457;50.832;4.346;2024-03-02T06:25:25;5.30;99.90
24338;DHT22;12457;50.832;4.346;2024-03-02T06:27:50;5.30;99.90
24338;DHT22;12457;50.832;4.346;2024-03-02T06:30:16;5.30;99.90
24338;DHT22;12457;50.832;4.346;2024-03-02T06:32:42;5.30;99.90
24338;DHT22;12457;50.832;4.346;2024-03-02T06:35:07;5.40;99.90
24338;DHT22;12457;50.832;4.346;2024-03-02T06:37:38;5.40;99.90
24338;DHT22;12457;50.832;4.346;2024-03-02T06:40:08;5.40;99.90
24338;DHT22;12457;50.832;4.346;2024-03-02T06:42:34;5.40;99.90
24338;DHT22;12457;50.832;4.346;2024-03-02T06:45:00;5.30;99.90
24338;DHT22;12457;50.832;4.346;2024-03-02T06:47:26;5.40;99.90
24338;DHT22;12457;50.832;4.346;2024-03-02T06:49:51;5.40;99.90
24338;DHT22;12457;50.832;4.346;2024-03-02T06:52:18;5.40;99.90
24338;DHT22;12457;50.832;4.346;2024-03-02T06:54:44;5.40;99.90
24338;DHT22;12457;50.832;4.346;2024-03-02T06:57:09;5.40;99.90
24338;DHT22;12457;50.832;4.346;2024-03-02T06:59:35;5.50;99.90
24338;DHT22;12457;50.832;4.346;2024-03-02T07:02:01;5.50;99.90
24338;DHT22;12457;50.832;4.346;2024-03-02T07:04:27;5.50;99.90
24338;DHT22;12457;50.832;4.346;2024-03-02T07:06:53;5.50;99.90
24338;DHT22;12457;50.832;4.346;2024-03-02T07:09:18;5.60;99.90
24338;DHT22;12457;50.832;4.346;2024-03-02T07:11:48;5.50;99.90
24338;DHT22;12457;50.832;4.346;2024-03-02T07:14:16;5.60;99.90
24338;DHT22;12457;50.832;4.346;2024-03-02T07:16:42;5.60;99.90
24338;DHT22;12457;50.832;4.346;2024-03-02T07:19:08;5.60;99.90
24338;DHT22;12457;50.832;4.346;2024-03-02T07:21:34;5.70;99.90
24338;DHT22;12457;50.832;4.346;2024-03-02T07:24:00;5.70;99.90
24338;DHT22;12457;50.832;4.346;2024-03-02T07:26:29;5.70;99.90
24338;DHT22;12457;50.832;4.346;2024-03-02T07:28:56;5.70;99.90
24338;DHT22;12457;50.832;4.346;2024-03-02T07:31:22;5.80;99.90
24338;DHT22;12457;50.832;4.346;2024-03-02T07:33:48;5.80;99.90
24338;DHT22;12457;50.832;4.346;2024-03-02T07:36:14;5.90;99.90
24338;DHT22;12457;50.832;4.346;2024-03-02T07:38:40;5.90;99.90
24338;DHT22;12457;50.832;4.346;2024-03-02T07:41:08;6.00;99.90
24338;DHT22;12457;50.832;4.346;2024-03-02T07:43:34;6.00;99.90
24338;DHT22;12457;50.832;4.346;2024-03-02T07:46:00;6.10;99.90
24338;DHT22;12457;50.832;4.346;2024-03-02T07:48:26;6.10;99.90
24338;DHT22;12457;50.832;4.346;2024-03-02T07:50:52;6.20;99.90
24338;DHT22;12457;50.832;4.346;2024-03-02T07:53:18;6.30;99.90
24338;DHT22;12457;50.832;4.346;2024-03-02T07:55:43;6.30;99.90
24338;DHT22;12457;50.832;4.346;2024-03-02T07:58:09;6.40;99.90
24338;DHT22;12457;50.832;4.346;2024-03-02T08:00:46;6.40;99.90
24338;DHT22;12457;50.832;4.346;2024-03-02T08:03:12;6.50;99.90
24338;DHT22;12457;50.832;4.346;2024-03-02T08:05:38;6.60;99.90
24338;DHT22;12457;50.832;4.346;2024-03-02T08:08:05;6.70;99.90
24338;DHT22;12457;50.832;4.346;2024-03-02T08:10:30;6.70;99.90
24338;DHT22;12457;50.832;4.346;2024-03-02T08:12:56;6.70;99.90
24338;DHT22;12457;50.832;4.346;2024-03-02T08:15:24;6.70;99.90
24338;DHT22;12457;50.832;4.346;2024-03-02T08:17:51;6.90;99.90
24338;DHT22;12457;50.832;4.346;2024-03-02T08:20:17;6.90;99.90
24338;DHT22;12457;50.832;4.346;2024-03-02T08:22:43;7.00;99.90
24338;DHT22;12457;50.832;4.346;2024-03-02T08:25:09;7.10;99.90
24338;DHT22;12457;50.832;4.346;2024-03-02T08:27:35;7.20;99.90
24338;DHT22;12457;50.832;4.346;2024-03-02T08:30:19;7.20;99.90
24338;DHT22;12457;50.832;4.346;2024-03-02T08:32:45;7.30;99.90
24338;DHT22;12457;50.832;4.346;2024-03-02T08:35:12;7.40;99.90
24338;DHT22;12457;50.832;4.346;2024-03-02T08:37:40;7.50;99.90
24338;DHT22;12457;50.832;4.346;2024-03-02T08:40:08;7.60;99.90
24338;DHT22;12457;50.832;4.346;2024-03-02T08:42:34;7.60;99.90
24338;DHT22;12457;50.832;4.346;2024-03-02T08:45:00;7.80;99.90
24338;DHT22;12457;50.832;4.346;2024-03-02T08:47:27;7.80;99.90
24338;DHT22;12457;50.832;4.346;2024-03-02T08:49:52;7.90;99.90
24338;DHT22;12457;50.832;4.346;2024-03-02T08:52:18;8.00;99.90
24338;DHT22;12457;50.832;4.346;2024-03-02T08:54:44;8.10;99.90
24338;DHT22;12457;50.832;4.346;2024-03-02T08:57:10;8.20;99.90
24338;DHT22;12457;50.832;4.346;2024-03-02T09:00:13;8.30;99.90
24338;DHT22;12457;50.832;4.346;2024-03-02T09:02:39;8.40;99.90
24338;DHT22;12457;50.832;4.346;2024-03-02T09:05:05;8.50;99.90
24338;DHT22;12457;50.832;4.346;2024-03-02T09:07:31;8.60;99.90
24338;DHT22;12457;50.832;4.346;2024-03-02T09:09:57;8.70;99.90
24338;DHT22;12457;50.832;4.346;2024-03-02T09:12:22;8.80;99.90
24338;DHT22;12457;50.832;4.346;2024-03-02T09:14:48;8.90;99.90
24338;DHT22;12457;50.832;4.346;2024-03-02T09:17:14;8.90;99.90
24338;DHT22;12457;50.832;4.346;2024-03-02T09:19:39;9.00;99.90
24338;DHT22;12457;50.832;4.346;2024-03-02T09:22:05;9.00;99.90
24338;DHT22;12457;50.832;4.346;2024-03-02T09:24:32;9.00;99.90
24338;DHT22;12457;50.832;4.346;2024-03-02T09:26:59;9.00;99.90
24338;DHT22;12457;50.832;4.346;2024-03-02T09:29:24;9.00;99.90
24338;DHT22;12457;50.832;4.346;2024-03-02T09:31:53;9.10;99.90
24338;DHT22;12457;50.832;4.346;2024-03-02T09:34:19;9.10;99.90
24338;DHT22;12457;50.832;4.346;2024-03-02T09:36:45;9.20;99.90
24338;DHT22;12457;50.832;4.346;2024-03-02T09:39:10;9.40;99.90
24338;DHT22;12457;50.832;4.346;2024-03-02T09:41:37;9.50;99.90
24338;DHT22;12457;50.832;4.346;2024-03-02T09:44:03;9.70;99.90
24338;DHT22;12457;50.832;4.346;2024-03-02T09:46:32;9.70;99.90
24338;DHT22;12457;50.832;4.346;2024-03-02T09:48:58;9.70;99.90
24338;DHT22;12457;50.832;4.346;2024-03-02T09:51:24;9.70;99.90
24338;DHT22;12457;50.832;4.346;2024-03-02T09:53:50;9.70;99.90
24338;DHT22;12457;50.832;4.346;2024-03-02T09:56:16;9.80;99.90
24338;DHT22;12457;50.832;4.346;2024-03-02T09:58:44;9.90;99.90
24338;DHT22;12457;50.832;4.346;2024-03-02T10:01:19;10.00;99.90
24338;DHT22;12457;50.832;4.346;2024-03-02T10:03:45;10.10;99.90
24338;DHT22;12457;50.832;4.346;2024-03-02T10:06:24;10.30;99.90
24338;DHT22;12457;50.832;4.346;2024-03-02T10:08:51;10.50;99.90
24338;DHT22;12457;50.832;4.346;2024-03-02T10:11:31;10.60;99.90
24338;DHT22;12457;50.832;4.346;2024-03-02T10:14:11;10.70;99.90
24338;DHT22;12457;50.832;4.346;2024-03-02T10:16:43;10.90;99.90
24338;DHT22;12457;50.832;4.346;2024-03-02T10:19:22;11.00;99.90
24338;DHT22;12457;50.832;4.346;2024-03-02T10:21:51;11.00;99.90
24338;DHT22;12457;50.832;4.346;2024-03-02T10:24:17;11.10;99.90
24338;DHT22;12457;50.832;4.346;2024-03-02T10:26:43;11.30;99.90
24338;DHT22;12457;50.832;4.346;2024-03-02T10:29:10;11.30;99.90
24338;DHT22;12457;50.832;4.346;2024-03-02T10:31:40;11.40;99.90
24338;DHT22;12457;50.832;4.346;2024-03-02T10:34:07;11.40;99.90
24338;DHT22;12457;50.832;4.346;2024-03-02T10:36:34;11.50;99.90
24338;DHT22;12457;50.832;4.346;2024-03-02T10:39:06;11.60;99.90
24338;DHT22;12457;50.832;4.346;2024-03-02T10:41:36;11.60;99.90
24338;DHT22;12457;50.832;4.346;2024-03-02T10:44:03;11.60;99.90
24338;DHT22;12457;50.832;4.346;2024-03-02T10:46:37;11.70;99.90
24338;DHT22;12457;50.832;4.346;2024-03-02T10:49:05;11.90;99.90
24338;DHT22;12457;50.832;4.346;2024-03-02T10:51:32;12.20;99.90
24338;DHT22;12457;50.832;4.346;2024-03-02T10:53:59;12.50;99.90
24338;DHT22;12457;50.832;4.346;2024-03-02T10:56:33;12.50;99.90
24338;DHT22;12457;50.832;4.346;2024-03-02T11:01:30;12.70;99.90
24338;DHT22;12457;50.832;4.346;2024-03-02T11:03:58;12.70;99.90
24338;DHT22;12457;50.832;4.346;2024-03-02T11:06:26;12.70;99.90
24338;DHT22;12457;50.832;4.346;2024-03-02T11:08:54;12.80;99.90
24338;DHT22;12457;50.832;4.346;2024-03-02T11:11:29;12.80;99.90
24338;DHT22;12457;50.832;4.346;2024-03-02T11:13:57;12.90;99.90
24338;DHT22;12457;50.832;4.346;2024-03-02T11:16:36;13.00;99.90
24338;DHT22;12457;50.832;4.346;2024-03-02T11:19:05;12.80;99.90
24338;DHT22;12457;50.832;4.346;2024-03-02T11:21:33;12.90;99.90
24338;DHT22;12457;50.832;4.346;2024-03-02T11:23:59;12.80;99.90
24338;DHT22;12457;50.832;4.346;2024-03-02T11:26:27;13.00;99.90
24338;DHT22;12457;50.832;4.346;2024-03-02T11:28:54;13.00;99.90
24338;DHT22;12457;50.832;4.346;2024-03-02T11:31:21;13.20;99.90
24338;DHT22;12457;50.832;4.346;2024-03-02T11:33:47;13.40;99.90
24338;DHT22;12457;50.832;4.346;2024-03-02T11:36:13;13.50;99.90
24338;DHT22;12457;50.832;4.346;2024-03-02T11:38:39;13.60;99.90
24338;DHT22;12457;50.832;4.346;2024-03-02T11:41:09;13.70;99.90
24338;DHT22;12457;50.832;4.346;2024-03-02T11:43:38;13.80;99.90
24338;DHT22;12457;50.832;4.346;2024-03-02T11:46:07;14.00;99.90
24338;DHT22;12457;50.832;4.346;2024-03-02T11:48:35;14.20;99.90
24338;DHT22;12457;50.832;4.346;2024-03-02T11:51:02;14.10;99.90
24338;DHT22;12457;50.832;4.346;2024-03-02T11:53:28;14.00;99.90
24338;DHT22;12457;50.832;4.346;2024-03-02T11:55:58;13.90;99.90
24338;DHT22;12457;50.832;4.346;2024-03-02T11:58:24;13.90;99.90
24338;DHT22;12457;50.832;4.346;2024-03-02T12:00:54;14.00;99.90
24338;DHT22;12457;50.832;4.346;2024-03-02T12:03:22;14.10;99.90
24338;DHT22;12457;50.832;4.346;2024-03-02T12:05:54;14.00;99.90
24338;DHT22;12457;50.832;4.346;2024-03-02T12:08:20;14.00;99.90
24338;DHT22;12457;50.832;4.346;2024-03-02T12:11:00;14.00;99.90
24338;DHT22;12457;50.832;4.346;2024-03-02T12:13:27;14.10;99.90
24338;DHT22;12457;50.832;4.346;2024-03-02T12:15:54;14.20;99.90
24338;DHT22;12457;50.832;4.346;2024-03-02T12:18:23;14.10;99.90
24338;DHT22;12457;50.832;4.346;2024-03-02T12:20:50;13.90;99.90
24338;DHT22;12457;50.832;4.346;2024-03-02T12:23:22;14.00;99.90
24338;DHT22;12457;50.832;4.346;2024-03-02T12:25:48;14.10;99.90
24338;DHT22;12457;50.832;4.346;2024-03-02T12:28:14;14.00;99.90
24338;DHT22;12457;50.832;4.346;2024-03-02T12:30:40;13.90;99.90
24338;DHT22;12457;50.832;4.346;2024-03-02T12:33:07;13.70;99.90
24338;DHT22;12457;50.832;4.346;2024-03-02T12:35:33;13.60;99.90
24338;DHT22;12457;50.832;4.346;2024-03-02T12:37:58;13.60;99.90
24338;DHT22;12457;50.832;4.346;2024-03-02T12:40:24;13.60;99.90
24338;DHT22;12457;50.832;4.346;2024-03-02T12:42:50;13.60;99.90
24338;DHT22;12457;50.832;4.346;2024-03-02T12:45:17;13.60;99.90
24338;DHT22;12457;50.832;4.346;2024-03-02T12:48:00;13.70;99.90
24338;DHT22;12457;50.832;4.346;2024-03-02T12:50:27;13.90;99.90
24338;DHT22;12457;50.832;4.346;2024-03-02T12:52:53;13.70;99.90
24338;DHT22;12457;50.832;4.346;2024-03-02T12:55:21;13.60;99.90
24338;DHT22;12457;50.832;4.346;2024-03-02T12:57:51;13.80;99.90
24338;DHT22;12457;50.832;4.346;2024-03-02T13:00:18;14.00;99.90
24338;DHT22;12457;50.832;4.346;2024-03-02T13:03:06;14.10;99.90
24338;DHT22;12457;50.832;4.346;2024-03-02T13:05:32;14.20;99.90
24338;DHT22;12457;50.832;4.346;2024-03-02T13:07:58;14.20;99.90
24338;DHT22;12457;50.832;4.346;2024-03-02T13:10:25;14.10;99.90
24338;DHT22;12457;50.832;4.346;2024-03-02T13:12:51;14.10;99.90
24338;DHT22;12457;50.832;4.346;2024-03-02T13:15:17;14.00;99.90
24338;DHT22;12457;50.832;4.346;2024-03-02T13:18:01;14.00;99.90
24338;DHT22;12457;50.832;4.346;2024-03-02T13:20:32;14.00;99.90
24338;DHT22;12457;50.832;4.346;2024-03-02T13:22:58;14.00;99.90
24338;DHT22;12457;50.832;4.346;2024-03-02T13:25:24;14.00;99.90
24338;DHT22;12457;50.832;4.346;2024-03-02T13:27:50;14.00;99.90
24338;DHT22;12457;50.832;4.346;2024-03-02T13:30:16;14.10;99.90
24338;DHT22;12457;50.832;4.346;2024-03-02T13:32:45;14.20;99.90
24338;DHT22;12457;50.832;4.346;2024-03-02T13:35:11;14.30;99.90
24338;DHT22;12457;50.832;4.346;2024-03-02T13:37:39;14.20;99.90
24338;DHT22;12457;50.832;4.346;2024-03-02T13:40:05;14.10;99.90
24338;DHT22;12457;50.832;4.346;2024-03-02T13:42:31;14.10;99.90
24338;DHT22;12457;50.832;4.346;2024-03-02T13:44:57;14.10;99.90
24338;DHT22;12457;50.832;4.346;2024-03-02T13:47:23;14.30;99.90
24338;DHT22;12457;50.832;4.346;2024-03-02T13:49:49;14.30;99.90
24338;DHT22;12457;50.832;4.346;2024-03-02T13:52:15;14.40;99.90
24338;DHT22;12457;50.832;4.346;2024-03-02T13:54:43;14.40;99.90
24338;DHT22;12457;50.832;4.346;2024-03-02T13:57:10;14.50;99.90
24338;DHT22;12457;50.832;4.346;2024-03-02T13:59:36;14.50;99.90
24338;DHT22;12457;50.832;4.346;2024-03-02T14:02:02;14.40;99.90
24338;DHT22;12457;50.832;4.346;2024-03-02T14:04:34;14.30;99.90
24338;DHT22;12457;50.832;4.346;2024-03-02T14:07:01;14.20;99.90
24338;DHT22;12457;50.832;4.346;2024-03-02T14:09:27;14.20;99.90
24338;DHT22;12457;50.832;4.346;2024-03-02T14:11:54;14.00;99.90
24338;DHT22;12457;50.832;4.346;2024-03-02T14:14:20;13.80;99.90
24338;DHT22;12457;50.832;4.346;2024-03-02T14:16:46;13.70;99.90
24338;DHT22;12457;50.832;4.346;2024-03-02T14:19:12;13.50;99.90
24338;DHT22;12457;50.832;4.346;2024-03-02T14:21:38;13.20;99.90
24338;DHT22;12457;50.832;4.346;2024-03-02T14:24:04;13.00;99.90
24338;DHT22;12457;50.832;4.346;2024-03-02T14:26:30;12.90;99.90
24338;DHT22;12457;50.832;4.346;2024-03-02T14:28:56;12.60;99.90
24338;DHT22;12457;50.832;4.346;2024-03-02T14:31:21;12.60;99.90
24338;DHT22;12457;50.832;4.346;2024-03-02T14:33:47;12.50;99.90
24338;DHT22;12457;50.832;4.346;2024-03-02T14:36:13;12.50;99.90
24338;DHT22;12457;50.832;4.346;2024-03-02T14:38:39;12.40;99.90
24338;DHT22;12457;50.832;4.346;2024-03-02T14:41:05;12.30;99.90
24338;DHT22;12457;50.832;4.346;2024-03-02T14:43:31;12.30;99.90
24338;DHT22;12457;50.832;4.346;2024-03-02T14:45:56;12.30;99.90
24338;DHT22;12457;50.832;4.346;2024-03-02T14:48:24;12.30;99.90
24338;DHT22;12457;50.832;4.346;2024-03-02T14:50:50;12.40;99.90
24338;DHT22;12457;50.832;4.346;2024-03-02T14:53:16;12.40;99.90
24338;DHT22;12457;50.832;4.346;2024-03-02T14:55:43;12.40;99.90
24338;DHT22;12457;50.832;4.346;2024-03-02T14:58:09;12.40;99.90
24338;DHT22;12457;50.832;4.346;2024-03-02T15:00:35;12.40;99.90
24338;DHT22;12457;50.832;4.346;2024-03-02T15:03:01;12.50;99.90
24338;DHT22;12457;50.832;4.346;2024-03-02T15:05:27;12.60;99.90
24338;DHT22;12457;50.832;4.346;2024-03-02T15:07:53;12.60;99.90
24338;DHT22;12457;50.832;4.346;2024-03-02T15:10:18;12.70;99.90
24338;DHT22;12457;50.832;4.346;2024-03-02T15:12:44;12.60;99.90
24338;DHT22;12457;50.832;4.346;2024-03-02T15:15:10;12.60;99.90
24338;DHT22;12457;50.832;4.346;2024-03-02T15:17:36;12.50;99.90
24338;DHT22;12457;50.832;4.346;2024-03-02T15:20:03;12.40;99.90
24338;DHT22;12457;50.832;4.346;2024-03-02T15:22:30;12.40;99.90
24338;DHT22;12457;50.832;4.346;2024-03-02T15:24:55;12.30;99.90
24338;DHT22;12457;50.832;4.346;2024-03-02T15:27:21;12.30;99.90
24338;DHT22;12457;50.832;4.346;2024-03-02T15:29:47;12.20;99.90
24338;DHT22;12457;50.832;4.346;2024-03-02T15:32:15;12.20;99.90
24338;DHT22;12457;50.832;4.346;2024-03-02T15:34:41;12.20;99.90
24338;DHT22;12457;50.832;4.346;2024-03-02T15:37:08;12.30;99.90
24338;DHT22;12457;50.832;4.346;2024-03-02T15:39:34;12.30;99.90
24338;DHT22;12457;50.832;4.346;2024-03-02T15:42:00;12.30;99.90
24338;DHT22;12457;50.832;4.346;2024-03-02T15:44:27;12.30;99.90
24338;DHT22;12457;50.832;4.346;2024-03-02T15:46:53;12.30;99.90